This demonstration page uses our WeatherBlox Daily Observations layout. Learn more.

Left ArrowRight Arrow

39.92423, -83.80882

Hourly Observations for August 4, 2016

Temp ( °F °C ) Dew Point ( °F °C ) Humidity (%) Winds ( mph kmh ) Pressure ( in mb ) Visibility ( mi km ) Precip ( " mm )
12:56 am 00:56 Clear 68 20 66 18.9 93 93 SE 6 9 30.02 1017 10 16.0934 N/A
1:56 am 01:56 Clear 72 22.2 68 20 87 87 undefined N/A N/A 10 16.0934 N/A
2:56 am 02:56 Clear 71 21.7 68 20 90 90 ESE 3 6 30 1016 10 16.0934 N/A
3:56 am 03:56 Clear with Mist and Fog 67 19.4 66 18.9 97 97 N N/A 30 1016 6 9.65604 N/A
4:56 am 04:56 Clear with Mist and Fog 67 19.4 66 18.9 97 97 ENE 7 11 30 1016 4 6.43736 N/A
5:56 am 05:56 Clear with Mist and Fog 68 20 67 19.4 96 96 E 6 9 30 1016 4 6.43736 N/A
6:35 am 06:35 Clear with Mist and Fog 66 19 66 19 100 100 E 5 7 30 1016 2.5 4.02335 N/A
6:56 am 06:56 Sunny with Mist and Fog 67 19.4 66 18.9 97 97 SE 5 7 30.02 1017 3 4.82802 N/A
7:05 am 07:05 Sunny with Mist and Fog 68 20 66 19 94 94 ESE 5 7 30.03 1017 2.5 4.02335 N/A
7:13 am 07:13 Sunny with Mist and Fog 68 20 68 20 100 100 ESE 5 7 30.03 1017 3 4.82802 N/A
7:56 am 07:56 Sunny 70 21.1 69 20.6 97 97 E 6 9 30.03 1017 7 11.26538 N/A
8:56 am 08:56 Sunny 72 22.2 70 21.1 94 94 ESE 5 7 30.04 1017 10 16.0934 N/A
9:56 am 09:56 Sunny 74 23.3 71 21.7 91 91 ESE 6 9 30.04 1017 10 16.0934 N/A
10:26 am 10:26 Mostly Sunny 77 25 72 22 83 83 SE 6 9 30.03 1017 10 16.0934 N/A
10:56 am 10:56 Mostly Sunny 78 25.6 72 22.2 82 82 SE 5 7 30.04 1017 10 16.0934 N/A
11:56 am 11:56 Partly Cloudy 81 27.2 73 22.8 77 77 ESE 6 9 30.03 1017 10 16.0934 N/A
12:38 pm 12:38 Mostly Cloudy 82 28 72 22 70 70 S 5 7 30 1016 10 16.0934 N/A
12:56 pm 12:56 Mostly Cloudy 83 28.3 73 22.8 72 72 VRB 6 9 N/A 10 16.0934 N/A
1:09 pm 13:09 Partly Cloudy 82 28 72 22 70 70 SE 6 9 30 1016 10 16.0934 N/A
1:56 pm 13:56 Mostly Sunny 84 28.9 71 21.7 65 65 SE 6 9 30 1016 10 16.0934 N/A
2:56 pm 14:56 Sunny 85 29.4 72 22.2 65 65 VRB 7 11 29.98 1015 10 16.0934 N/A
3:56 pm 15:56 Hazy 86 30 72 22.2 63 63 ESE 6 9 29.97 1015 6 9.65604 N/A
4:56 pm 16:56 Sunny 86 30 70 21.1 59 59 undefined N/A 29.97 1015 10 16.0934 N/A
5:56 pm 17:56 Mostly Cloudy 84 28.9 71 21.7 65 65 undefined N/A N/A 10 16.0934 N/A
6:56 pm 18:56 Mostly Cloudy 85 29.4 69 20.6 59 59 ESE 6 9 29.95 1014 7 11.26538 N/A
7:56 pm 19:56 Sunny 82 27.8 72 22.2 72 72 E 3 6 29.95 1014 10 16.0934 N/A
8:56 pm 20:56 Clear 77 25 71 21.7 82 82 ESE 6 9 29.93 1014 10 16.0934 N/A
9:56 pm 21:56 Clear 76 24.4 71 21.7 85 85 N N/A 29.95 1014 10 16.0934 N/A
10:56 pm 22:56 Clear 74 23.3 70 21.1 88 88 SE 3 6 29.95 1014 10 16.0934 N/A
11:56 pm 23:56 Clear 74 23.3 70 21.1 88 88 SSE 6 9 29.95 1014 10 16.0934 N/A

Powered by AerisWeather